^^
Datos históricos de la estación: Murcia-Puente Tocinos
Diario Informe para Noviembre 21, 2021 Unidades:  Ingés    Métrico   Ambas
Diario Semanal Mensual Anual
  Máxima: Mínima: Promedio:
Temperatura: 66.7 °F 56.5 °F 60.3 °F
Punto de rocio: 56.5 °F 50.9 °F 53.4 °F
Humedad: 95% 58% 79%
Velocidad viento: 8.1mph 2mph 5mph
Racha viento: 15mph - -
Viento- - SSO
Presión: 30 in 29.8 in -
Precipitación: 0.05 in    
 
 
Tabla de datos para Noviembre 21, 2021
Hora Temperatura Punto de rocio Presión Viento Velocidad viento Racha viento Humedad Intensidad lluvia(por hora) Nubes
00:04 58.5 °F 56.5 °F 30 in SO 2.9 mph 4.6 mph 93.2% 0 in
00:09 58.5 °F 56.5 °F 30 in SO 2.6 mph 5.2 mph 93% 0 in
00:14 58.5 °F 56.3 °F 30 in SO 2 mph 5.9 mph 93% 0 in
00:19 58.5 °F 56.3 °F 30 in SSO 2.7 mph 8.1 mph 93% 0.02 in
00:24 58.3 °F 56.3 °F 30 in SSO 4 mph 6.2 mph 93% 0.02 in
00:29 58.3 °F 56.3 °F 30 in SSO 3.7 mph 5.8 mph 93% 0.02 in
00:34 58.3 °F 56.3 °F 30 in SSO 3.1 mph 6.9 mph 93% 0.03 in
00:39 58.3 °F 56.3 °F 30 in SO 3.4 mph 6.2 mph 93.2% 0.03 in
00:44 58.1 °F 56.5 °F 30 in SSO 4 mph 6.9 mph 93.9% 0.03 in
00:49 57.9 °F 56.3 °F 30 in SSO 4.1 mph 8.1 mph 94% 0.04 in
00:54 57.9 °F 56.1 °F 30 in SSO 4.3 mph 6.9 mph 94% 0.04 in
00:59 57.7 °F 56.1 °F 30 in SSO 4.6 mph 6.9 mph 94% 0.04 in
01:04 57.7 °F 56.1 °F 30 in SSO 5.2 mph 6.4 mph 94% 0.04 in
01:09 57.7 °F 55.9 °F 30 in SSO 4.9 mph 6.9 mph 94% 0.04 in
01:14 57.7 °F 55.9 °F 30 in SSO 4.3 mph 6.9 mph 94% 0.04 in
01:19 57.6 °F 55.9 °F 30 in SSO 4.4 mph 7.4 mph 94% 0.04 in
01:24 57.6 °F 55.8 °F 30 in SSO 4.7 mph 8.1 mph 94% 0.02 in
01:29 57.4 °F 55.8 °F 30 in SSO 4.7 mph 8.1 mph 94% 0.02 in
01:34 57.2 °F 55.4 °F 30 in SSO 4.7 mph 8.5 mph 94% 0.02 in
01:39 57 °F 55.2 °F 30 in SSO 4.9 mph 8.1 mph 94% 0.01 in
01:44 57 °F 55.2 °F 30 in SSO 5.4 mph 8.1 mph 94% 0.01 in
01:49 56.8 °F 55 °F 30 in SSO 5.3 mph 8.1 mph 94% 0 in
01:54 56.8 °F 55.2 °F 30 in SSO 5.2 mph 6.9 mph 94.1% 0 in
01:59 56.8 °F 55.4 °F 30 in Sur 4.8 mph 7.4 mph 94.7% 0 in
02:04 56.8 °F 55.4 °F 30 in Sur 4.3 mph 9.2 mph 94.7% 0 in
02:09 56.8 °F 55.2 °F 30 in SSO 4.6 mph 8.5 mph 94.5% 0 in
02:14 56.8 °F 55.4 °F 30 in SSO 5.2 mph 7.4 mph 95% 0 in
02:19 56.7 °F 55.2 °F 30 in SSO 5 mph 7.4 mph 95% 0 in
02:24 56.7 °F 55.2 °F 30 in SSO 4.7 mph 6.9 mph 95% 0 in
02:29 56.7 °F 55.2 °F 30 in Sur 4.7 mph 6.9 mph 95% 0 in
02:34 56.7 °F 55.2 °F 30 in SSO 4.7 mph 6.9 mph 95% 0 in
02:39 56.7 °F 55.2 °F 30 in SSO 4.6 mph 7.4 mph 95% 0 in
02:44 56.7 °F 55.2 °F 30 in SSO 4.3 mph 6.2 mph 95% 0 in
02:49 56.7 °F 55.2 °F 30 in SSO 4.2 mph 6.2 mph 95% 0 in
02:54 56.7 °F 55.2 °F 30 in SSO 4 mph 6.9 mph 95% 0 in
02:59 56.7 °F 55.2 °F 30 in SSO 4 mph 6.2 mph 95% 0 in
03:04 56.5 °F 55.2 °F 30 in SSO 4 mph 6.4 mph 95% 0 in
03:09 56.5 °F 55 °F 30 in Sur 4 mph 6.9 mph 95% 0 in
03:14 56.7 °F 55 °F 30 in SSO 4 mph 5.8 mph 94.5% 0.01 in
03:19 56.7 °F 54.9 °F 30 in SSO 4 mph 5.9 mph 94% 0.01 in
03:24 56.5 °F 54.9 °F 30 in SSO 4 mph 6.2 mph 94% 0.01 in
03:29 56.5 °F 54.9 °F 30 in SSO 4 mph 6.4 mph 94% 0.01 in
03:34 56.5 °F 54.9 °F 30 in SSO 4 mph 7.4 mph 94% 0.01 in
03:39 56.7 °F 54.9 °F 30 in SSO 4 mph 8.5 mph 94% 0.01 in
03:44 56.5 °F 54.9 °F 30 in SSO 4 mph 8.1 mph 94% 0.01 in
03:49 56.5 °F 54.9 °F 30 in SSO 4.2 mph 8.1 mph 94% 0.01 in
03:54 56.5 °F 54.9 °F 30 in SSO 4.7 mph 7.4 mph 94% 0.01 in
03:59 56.5 °F 54.9 °F 30 in SO 4.5 mph 5.8 mph 94% 0.01 in
04:04 56.5 °F 54.9 °F 30 in SSO 4.3 mph 6.2 mph 94% 0.01 in
04:09 56.5 °F 54.9 °F 30 in SSO 4.2 mph 5.9 mph 94% 0.01 in
04:14 56.5 °F 54.9 °F 30 in SSO 4 mph 6.2 mph 94% 0 in
04:19 56.5 °F 54.9 °F 30 in SSO 4 mph 5.9 mph 94% 0 in
04:24 56.5 °F 54.9 °F 30 in SSO 4 mph 7.4 mph 94% 0 in
04:29 56.5 °F 54.9 °F 30 in SSO 4.1 mph 6.9 mph 94% 0 in
04:34 56.5 °F 54.7 °F 30 in Sur 4.3 mph 5.9 mph 93.9% 0 in
04:39 56.5 °F 54.5 °F 30 in Sur 4.2 mph 6.2 mph 93.2% 0 in
04:44 56.5 °F 54.5 °F 30 in SSO 4 mph 5.8 mph 93% 0 in
04:49 56.5 °F 54.5 °F 30 in SSO 4 mph 5.9 mph 93% 0 in
04:54 56.5 °F 54.5 °F 30 in SSO 4 mph 6.9 mph 93% 0 in
04:59 56.5 °F 54.5 °F 30 in SSO 4.1 mph 8.1 mph 93% 0 in
05:04 56.5 °F 54.5 °F 30 in SSO 4.3 mph 9.7 mph 93% 0 in
05:09 56.5 °F 54.5 °F 30 in SSO 5 mph 11.5 mph 93% 0 in
05:14 56.7 °F 54.7 °F 30 in SSO 6.4 mph 10.4 mph 93% 0 in
05:19 56.7 °F 54.5 °F 30 in SSO 6.3 mph 9.7 mph 92.4% 0 in
05:24 56.7 °F 54.3 °F 30 in SSO 6.2 mph 10.4 mph 92% 0 in
05:29 56.8 °F 54.3 °F 29.9 in SSO 6.2 mph 8.5 mph 91.3% 0 in
05:34 56.8 °F 54.1 °F 29.9 in SSO 6.2 mph 6.2 mph 91% 0 in
05:39 56.8 °F 54.1 °F 30 in SSO 5.6 mph 7.4 mph 91% 0 in
05:44 56.8 °F 54 °F 30 in SSO 4.3 mph 8.1 mph 90.4% 0 in
05:49 56.8 °F 54 °F 30 in SSO 4.4 mph 8.1 mph 90% 0 in
05:54 57 °F 54.1 °F 30 in SSO 4.7 mph 7.4 mph 90% 0 in
05:59 57 °F 54.1 °F 30 in SSO 4.5 mph 6.9 mph 90% 0 in
06:04 57 °F 54.1 °F 30 in SSO 4.3 mph 8.5 mph 90% 0 in
06:09 57 °F 53.8 °F 30 in SSO 4.4 mph 8.5 mph 89% 0 in
06:14 57 °F 53.8 °F 29.9 in SSO 4.7 mph 8.1 mph 89% 0 in
06:19 57 °F 53.8 °F 29.9 in SSO 4.7 mph 9.2 mph 89% 0 in
06:24 57 °F 54 °F 29.9 in SSO 4.7 mph 8.1 mph 89% 0 in
06:29 57.2 °F 53.8 °F 29.9 in SSO 4.7 mph 6.9 mph 88.1% 0 in
06:34 57.4 °F 53.8 °F 29.9 in SSO 4.7 mph 8.1 mph 88% 0 in
06:39 57.4 °F 54 °F 29.9 in SSO 4.7 mph 6.9 mph 88% 0 in
06:44 57.4 °F 54 °F 29.9 in SSO 4.7 mph 6.2 mph 88% 0 in
06:49 57.4 °F 54 °F 29.9 in SSO 4.5 mph 6.9 mph 88% 0 in
06:54 57.4 °F 53.6 °F 29.9 in SSO 4 mph 6.9 mph 87.2% 0 in
06:59 57.4 °F 53.6 °F 29.9 in SSO 4 mph 5.8 mph 87.5% 0 in
07:04 57.4 °F 53.8 °F 29.9 in SSO 4 mph 6.2 mph 87.5% 0 in
07:09 57.4 °F 53.8 °F 29.9 in SSO 4 mph 5.8 mph 87.5% 0 in
07:14 57.4 °F 53.4 °F 29.9 in SSO 4 mph 5.4 mph 87% 0 in
07:19 57.4 °F 53.4 °F 29.9 in SSO 4 mph 6.2 mph 87% 0 in
07:24 57.4 °F 53.4 °F 29.9 in Sur 4 mph 6.9 mph 87% 0 in
07:29 57.4 °F 53.8 °F 29.9 in Sur 4.2 mph 6.9 mph 87.8% 0 in
07:34 57.2 °F 53.8 °F 29.9 in SSO 4.7 mph 6.9 mph 88% 0 in
07:39 57 °F 53.4 °F 30 in SSO 4.7 mph 7.4 mph 88% 0 in
07:44 57 °F 53.4 °F 30 in SSO 4.7 mph 8.5 mph 88% 0 in
07:49 57 °F 53.4 °F 30 in SSO 4.9 mph 8.1 mph 88% 0 in
07:54 57 °F 53.4 °F 30 in SSO 5.4 mph 8.5 mph 88% 0 in
07:59 57 °F 53.4 °F 29.9 in SSO 5.6 mph 9.7 mph 88% 0 in
08:04 57 °F 53.4 °F 29.9 in SSO 5.9 mph 9.2 mph 88% 0 in
08:09 57 °F 53.4 °F 29.9 in SSO 5.9 mph 8.1 mph 88% 0 in
08:14 57 °F 53.4 °F 29.9 in SSO 5.9 mph 8.5 mph 88% 0 in
08:19 57 °F 53.4 °F 29.9 in SSO 5.5 mph 7.4 mph 88% 0 in
08:24 57 °F 53.6 °F 30 in SSO 4.7 mph 8.1 mph 88% 0 in
08:29 57.2 °F 53.6 °F 30 in SSO 4.7 mph 8.1 mph 87.5% 0 in
08:34 57.4 °F 53.4 °F 30 in SSO 4.7 mph 6.9 mph 87% 0 in
08:39 57.4 °F 53.4 °F 30 in Sur 4.7 mph 6.9 mph 87% 0 in
08:44 57.4 °F 53.4 °F 30 in Sur 4.7 mph 7.4 mph 87% 0 in
08:49 57.4 °F 53.4 °F 30 in Sur 4.7 mph 7.4 mph 87% 0 in
08:54 57.4 °F 53.4 °F 30 in SSO 4.7 mph 8.1 mph 87% 0 in
08:59 57.4 °F 53.4 °F 30 in Sur 4.7 mph 6.9 mph 87% 0 in
09:04 57.6 °F 53.6 °F 30 in Sur 4.7 mph 6.9 mph 87% 0 in
09:09 57.6 °F 53.8 °F 30 in Sur 4.7 mph 7.4 mph 87% 0 in
09:14 57.6 °F 53.8 °F 30 in Sur 4.7 mph 6.2 mph 87% 0 in
09:19 57.6 °F 53.8 °F 30 in Sur 4.6 mph 6.9 mph 87% 0 in
09:24 57.6 °F 53.8 °F 30 in Sur 4.3 mph 6.9 mph 87% 0 in
09:29 57.6 °F 53.8 °F 30 in SSO 4.3 mph 6.9 mph 87% 0 in
09:34 57.6 °F 53.6 °F 30 in Sur 4.3 mph 6.9 mph 86.6% 0 in
09:39 57.7 °F 53.6 °F 30 in Sur 4.3 mph 6.9 mph 86% 0 in
09:44 57.9 °F 53.8 °F 30 in Sur 4.3 mph 6.9 mph 86% 0 in
09:49 57.9 °F 53.6 °F 30 in Sur 4.4 mph 7.4 mph 85.3% 0 in
09:54 58.3 °F 53.6 °F 30 in Sur 4.7 mph 10.4 mph 84.7% 0 in
09:59 58.5 °F 53.6 °F 30 in Sur 5 mph 11.5 mph 84% 0 in
10:04 58.6 °F 53.6 °F 30 in Sur 5.4 mph 8.1 mph 83.3% 0 in
10:09 58.8 °F 53.6 °F 30 in SSO 5.3 mph 8.1 mph 83% 0 in
10:14 59 °F 53.6 °F 30 in SO 5.2 mph 6.9 mph 82.5% 0 in
10:19 59.2 °F 53.8 °F 30 in SO 4.9 mph 7.4 mph 82% 0 in
10:24 59.4 °F 53.8 °F 30 in Sur 4.3 mph 9.2 mph 81.3% 0 in
10:29 59.5 °F 53.6 °F 30 in SSO 4.8 mph 9.7 mph 80.3% 0 in
10:34 59.7 °F 53.6 °F 30 in SO 5.9 mph 8.5 mph 80% 0 in
10:39 60.1 °F 53.6 °F 30 in OSO 5.9 mph 10.4 mph 79.5% 0 in
10:44 60.1 °F 53.2 °F 30 in OSO 5.9 mph 12.5 mph 78.1% 0 in
10:49 60.3 °F 53.1 °F 30 in OSO 6.2 mph 12.7 mph 77% 0 in
10:54 60.4 °F 53.1 °F 30 in OSO 6.9 mph 12.7 mph 76.7% 0 in
10:59 60.4 °F 52.9 °F 30 in OSO 7.1 mph 13 mph 76% 0 in
11:04 60.6 °F 52.9 °F 30 in OSO 7.4 mph 13 mph 75.6% 0 in
11:09 60.8 °F 53.2 °F 30 in OSO 7.4 mph 11.8 mph 76% 0 in
11:14 61.2 °F 53.1 °F 30 in OSO 7.4 mph 12.7 mph 74.9% 0 in
11:19 61.2 °F 52.5 °F 30 in Oeste 7.4 mph 11.5 mph 73.3% 0 in
11:24 61.3 °F 52.3 °F 30 in OSO 7.4 mph 12.7 mph 72.6% 0 in
11:29 61.7 °F 52.5 °F 30 in OSO 7.2 mph 12.5 mph 71.9% 0 in
11:34 62.1 °F 52.3 °F 30 in OSO 6.9 mph 12.7 mph 70.4% 0 in
11:39 62.2 °F 52.2 °F 30 in OSO 7.3 mph 15 mph 69.3% 0 in
11:44 62.4 °F 52.3 °F 29.9 in OSO 8.1 mph 9.2 mph 69.4% 0 in
11:49 62.4 °F 53.1 °F 29.9 in SO 7.2 mph 10.4 mph 71.1% 0 in
11:54 62.2 °F 53.1 °F 29.9 in SSO 5.4 mph 11.8 mph 71.9% 0 in
11:59 61.9 °F 53.1 °F 29.9 in SO 5.7 mph 10.4 mph 73% 0 in
12:04 61.9 °F 53.1 °F 29.9 in SO 6.2 mph 9.2 mph 73% 0 in
12:09 62.1 °F 53.1 °F 29.9 in SO 6.1 mph 10.7 mph 72.7% 0 in
12:14 62.1 °F 52.9 °F 29.9 in SO 5.9 mph 10.4 mph 72% 0 in
12:19 62.1 °F 52.7 °F 29.9 in SO 5.9 mph 8.5 mph 71.7% 0 in
12:24 62.2 °F 52.9 °F 29.9 in SSO 5.9 mph 8.5 mph 71.4% 0 in
12:29 62.2 °F 52.9 °F 29.9 in SSO 5.7 mph 9.7 mph 71.2% 0 in
12:34 62.2 °F 52.7 °F 29.9 in Sur 5.2 mph 10.4 mph 71% 0 in
12:39 62.2 °F 52.7 °F 29.9 in Sur 5.5 mph 9.2 mph 71% 0 in
12:44 62.2 °F 52.7 °F 29.9 in Sur 6.2 mph 8.1 mph 71% 0 in
12:49 62.4 °F 52.9 °F 29.9 in SSO 6 mph 9.2 mph 71% 0 in
12:54 62.2 °F 52.5 °F 29.9 in Sur 5.4 mph 9.2 mph 70.6% 0 in
12:59 62.2 °F 52.3 °F 29.9 in SSO 5.8 mph 9.2 mph 70.3% 0 in
13:04 62.2 °F 52.7 °F 29.9 in Sur 6.4 mph 8.5 mph 70.5% 0 in
13:09 62.4 °F 52.7 °F 29.9 in Sur 6.1 mph 8.5 mph 70.2% 0 in
13:14 62.8 °F 53.1 °F 29.9 in SSO 5.4 mph 8.1 mph 70.5% 0 in
13:19 62.8 °F 52.7 °F 29.9 in SSO 5.3 mph 11.5 mph 69.8% 0 in
13:24 62.8 °F 52.5 °F 29.9 in SSO 5.2 mph 8.5 mph 69.2% 0 in
13:29 63 °F 52.5 °F 29.9 in SSO 5.4 mph 9.2 mph 68.7% 0 in
13:34 63 °F 52.5 °F 29.9 in SSO 5.9 mph 6.2 mph 69% 0 in
13:39 63 °F 52.5 °F 29.9 in SSO 5.3 mph 8.1 mph 68.8% 0 in
13:44 63.1 °F 52.3 °F 29.9 in SSO 4 mph 8.1 mph 68% 0 in
13:49 63.3 °F 52.5 °F 29.9 in Sur 4.1 mph 7.4 mph 68% 0 in
13:54 63.7 °F 52.7 °F 29.9 in SSO 4.3 mph 8.5 mph 67.8% 0 in
13:59 63.9 °F 52.7 °F 29.9 in SSO 4.3 mph 6.9 mph 67% 0 in
14:04 64 °F 52.5 °F 29.9 in SO 4.3 mph 8.1 mph 66.3% 0 in
14:09 64 °F 52.3 °F 29.9 in SSO 4.4 mph 8.5 mph 66% 0 in
14:14 64 °F 52.3 °F 29.9 in SSO 4.7 mph 8.1 mph 66% 0 in
14:19 64 °F 52.5 °F 29.9 in SO 4.5 mph 6.9 mph 66.3% 0 in
14:24 64.2 °F 52.7 °F 29.9 in SO 4.3 mph 6.9 mph 66.1% 0 in
14:29 64.2 °F 52.3 °F 29.9 in SSO 4.2 mph 8.1 mph 65.1% 0 in
14:34 64.2 °F 52.2 °F 29.9 in Sur 4 mph 7.4 mph 65% 0 in
14:39 64.4 °F 52.2 °F 29.9 in Sur 4.5 mph 8.5 mph 64.5% 0 in
14:44 64.8 °F 52.3 °F 29.9 in Sur 5.4 mph 8.5 mph 64.2% 0 in
14:49 64.9 °F 52.3 °F 29.9 in Sur 5.6 mph 9.2 mph 63.7% 0 in
14:54 64.9 °F 52.3 °F 29.9 in SSO 5.9 mph 8.1 mph 63.6% 0 in
14:59 65.3 °F 52.3 °F 29.9 in SSO 5.7 mph 7.4 mph 63% 0 in
15:04 65.7 °F 52 °F 29.9 in SO 5.2 mph 9.7 mph 61.4% 0 in
15:09 65.7 °F 51.8 °F 29.9 in SO 5.3 mph 10.7 mph 61% 0 in
15:14 65.8 °F 52 °F 29.9 in SSO 5.4 mph 10.4 mph 60.8% 0 in
15:19 66 °F 51.8 °F 29.9 in SSO 5.3 mph 9.2 mph 60.2% 0 in
15:24 66 °F 51.3 °F 29.9 in SSO 5.2 mph 9.2 mph 59.1% 0 in
15:29 66.2 °F 51.4 °F 29.9 in SO 5.5 mph 10.4 mph 59% 0 in
15:34 66.2 °F 51.4 °F 29.9 in SSO 6.2 mph 8.1 mph 59.1% 0 in
15:39 66.4 °F 51.4 °F 29.9 in SSO 5.6 mph 6.9 mph 59% 0 in
15:44 66.4 °F 51.3 °F 29.9 in SSO 4.3 mph 8.1 mph 58.4% 0 in
15:49 66 °F 50.9 °F 29.9 in Sur 4.6 mph 8.5 mph 58% 0 in
15:54 66 °F 51.1 °F 29.9 in SSO 5.2 mph 8.1 mph 58.4% 0 in
15:59 66.2 °F 51.4 °F 29.9 in SSO 5.3 mph 9.2 mph 59.2% 0 in
16:04 66.6 °F 52 °F 29.9 in SSO 5.4 mph 9.2 mph 59.5% 0 in
16:09 66.6 °F 52 °F 29.9 in SSO 5.4 mph 9.2 mph 59.2% 0 in
16:14 66.6 °F 51.8 °F 29.8 in SSO 5.4 mph 9.7 mph 59% 0 in
16:19 66.7 °F 52 °F 29.8 in SSO 5.6 mph 8.1 mph 58.9% 0 in
16:24 66.7 °F 51.6 °F 29.8 in SSO 5.9 mph 9.2 mph 58.1% 0 in
16:29 66.7 °F 51.6 °F 29.8 in SSO 5.9 mph 8.5 mph 58.5% 0 in
16:34 66.6 °F 51.6 °F 29.8 in SSO 5.9 mph 9.2 mph 58.7% 0 in
16:39 66.4 °F 51.4 °F 29.8 in SSO 5.7 mph 10 mph 59% 0 in
16:44 66 °F 51.1 °F 29.8 in SSO 5.4 mph 11.5 mph 58.5% 0 in
16:49 65.8 °F 51.1 °F 29.8 in SSO 5.9 mph 11.2 mph 58.8% 0 in
16:54 65.7 °F 51.1 °F 29.8 in SSO 6.9 mph 10 mph 59.3% 0 in
16:59 65.5 °F 51.3 °F 29.8 in SSO 6.5 mph 10.4 mph 60.3% 0 in
17:04 65.1 °F 51.4 °F 29.8 in SSO 5.9 mph 10.4 mph 61.2% 0 in
17:09 64.9 °F 51.6 °F 29.8 in SSO 6.1 mph 11.8 mph 62% 0 in
17:14 64.8 °F 51.8 °F 29.8 in SSO 6.4 mph 11.8 mph 62.8% 0 in
17:19 64.6 °F 51.8 °F 29.8 in SSO 6.7 mph 10.7 mph 63.4% 0 in
17:24 64.4 °F 52.2 °F 29.8 in SO 7.4 mph 12.7 mph 64.6% 0 in
17:29 64 °F 52.7 °F 29.8 in SSO 7.4 mph 14 mph 66.3% 0 in
17:34 63.9 °F 52.9 °F 29.8 in SO 7.4 mph 12.7 mph 67.5% 0 in
17:39 63.7 °F 53.1 °F 29.8 in SSO 7.2 mph 11.4 mph 68.5% 0 in
17:44 63.3 °F 53.1 °F 29.8 in SSO 6.9 mph 12.7 mph 69% 0 in
17:49 63.1 °F 53.2 °F 29.8 in SSO 6.9 mph 10 mph 70% 0 in
17:54 63.1 °F 53.2 °F 29.8 in SSO 6.9 mph 14 mph 70% 0 in
17:59 63.1 °F 53.2 °F 29.8 in SSO 7.3 mph 13.8 mph 70% 0 in
18:04 63 °F 53.1 °F 29.8 in SSO 8.1 mph 12.7 mph 70.3% 0 in
18:09 63 °F 53.1 °F 29.8 in SSO 7.9 mph 11.2 mph 70.4% 0 in
18:14 62.8 °F 53.2 °F 29.8 in SSO 7.4 mph 12.7 mph 71% 0 in
18:19 62.8 °F 53.2 °F 29.8 in SSO 7.4 mph 11.5 mph 71.2% 0 in
18:24 62.6 °F 53.4 °F 29.8 in SSO 7.4 mph 10 mph 72% 0 in
18:29 62.4 °F 53.4 °F 29.8 in SSO 7 mph 10.4 mph 72.3% 0 in
18:34 62.4 °F 53.6 °F 29.8 in SSO 5.9 mph 14 mph 73% 0 in
18:39 62.4 °F 53.6 °F 29.8 in SO 6.1 mph 10.4 mph 73% 0 in
18:44 62.2 °F 53.4 °F 29.8 in SSO 6.4 mph 9.2 mph 73% 0 in
18:49 62.1 °F 53.4 °F 29.8 in SO 6 mph 9.2 mph 73% 0 in
18:54 62.1 °F 53.2 °F 29.8 in SO 5.2 mph 7.4 mph 73% 0 in
18:59 62.1 °F 53.2 °F 29.8 in SO 4.8 mph 9.2 mph 73% 0 in
19:04 62.1 °F 52.9 °F 29.8 in SO 4 mph 9.2 mph 72.1% 0 in
19:09 61.9 °F 52.9 °F 29.9 in SO 4.1 mph 6.9 mph 72% 0 in
19:14 61.9 °F 52.9 °F 29.9 in SO 4.3 mph 10.4 mph 72% 0 in
19:19 62.1 °F 52.9 °F 29.9 in SO 4.2 mph 5.9 mph 72% 0 in
19:24 62.1 °F 52.9 °F 29.9 in SO 4 mph 8.1 mph 72% 0 in
19:29 62.1 °F 52.9 °F 29.9 in OSO 3.9 mph 6.9 mph 72% 0 in
19:34 62.1 °F 52.9 °F 29.9 in SO 3.6 mph 6.9 mph 72% 0 in
19:39 62.1 °F 53.2 °F 29.9 in SSO 3.6 mph 5.9 mph 72.8% 0 in
19:44 62.1 °F 53.2 °F 29.9 in Sur 3.6 mph 4.7 mph 73% 0 in
19:49 62.1 °F 53.2 °F 29.9 in Sur 3.4 mph 4.6 mph 73% 0 in
19:54 62.1 °F 53.2 °F 29.9 in SSO 2.9 mph 5.9 mph 73% 0 in
19:59 61.9 °F 53.4 °F 29.9 in SSO 3.2 mph 9.2 mph 73.8% 0 in
20:04 61.9 °F 53.4 °F 29.9 in SSO 3.6 mph 8.1 mph 74% 0 in
20:09 61.9 °F 53.4 °F 29.9 in SO 3.9 mph 10.4 mph 74% 0 in
20:14 61.9 °F 53.4 °F 29.8 in SO 4.7 mph 6.9 mph 74% 0 in
20:19 61.7 °F 53.6 °F 29.8 in SO 4.5 mph 9.7 mph 74.7% 0 in
20:24 61.5 °F 53.6 °F 29.9 in SO 4 mph 10.7 mph 75% 0 in
20:29 61.5 °F 53.4 °F 29.9 in SO 4.4 mph 11.5 mph 75% 0 in
20:34 61.5 °F 53.4 °F 29.9 in SO 5.2 mph 8.1 mph 75% 0 in
20:39 61.3 °F 53.4 °F 29.9 in SO 4.8 mph 6.2 mph 75% 0 in
20:44 61.3 °F 53.2 °F 29.9 in OSO 4 mph 6.2 mph 75% 0 in
20:49 61.3 °F 53.2 °F 29.9 in OSO 3.7 mph 8.1 mph 75% 0 in
20:54 61.2 °F 53.2 °F 29.9 in SO 3.1 mph 4.6 mph 75% 0 in
20:59 61.2 °F 53.2 °F 29.9 in Sur 2.9 mph 5.2 mph 75% 0 in
21:04 61.2 °F 53.2 °F 29.9 in Sur 2.4 mph 6.9 mph 75% 0 in
21:09 61.2 °F 53.1 °F 29.9 in SE 2.8 mph 6.2 mph 75% 0 in
21:14 61 °F 52.9 °F 29.9 in SSE 3.6 mph 6.2 mph 75% 0 in
21:19 60.6 °F 52.7 °F 29.9 in SSE 3.8 mph 5.9 mph 75% 0 in
21:24 60.6 °F 52.9 °F 29.9 in SSE 4.3 mph 6.9 mph 75.6% 0 in
21:29 60.4 °F 52.9 °F 29.9 in Sur 4.3 mph 5.9 mph 76% 0 in
21:34 60.4 °F 52.9 °F 29.9 in Sur 4.3 mph 6.2 mph 76% 0 in
21:39 60.4 °F 52.9 °F 29.9 in SSE 4.3 mph 5.9 mph 76% 0 in
21:44 60.3 °F 52.7 °F 29.9 in SSE 4.3 mph 6.9 mph 76% 0 in
21:49 60.1 °F 52.5 °F 29.9 in SSE 4.4 mph 8.1 mph 76% 0 in
21:54 59.7 °F 52.3 °F 29.9 in SSE 4.7 mph 8.1 mph 76.4% 0 in
21:59 59.7 °F 52.5 °F 29.9 in SSE 5 mph 8.1 mph 77% 0 in
22:04 59.5 °F 52.3 °F 29.9 in Sur 5.4 mph 6.9 mph 77% 0 in
22:09 59.4 °F 52.3 °F 29.9 in Sur 5.3 mph 7.4 mph 77.4% 0 in
22:14 59.4 °F 52.5 °F 29.9 in SSE 5.2 mph 7.4 mph 78% 0 in
22:19 59.4 °F 52.5 °F 29.9 in Sur 5.2 mph 8.5 mph 78% 0 in
22:24 59.4 °F 52.5 °F 29.9 in Sur 5.2 mph 6.2 mph 78% 0 in
22:29 59.4 °F 52.5 °F 29.9 in Sur 4.9 mph 5.8 mph 78% 0 in
22:34 59.4 °F 52.5 °F 29.9 in SSO 4.3 mph 6.9 mph 78% 0 in
22:39 59.4 °F 52.5 °F 29.9 in SSO 4.3 mph 6.9 mph 78% 0 in
22:44 59.4 °F 52.5 °F 29.9 in SSO 4.3 mph 5.9 mph 78% 0 in
22:49 59.5 °F 52.5 °F 29.9 in SSO 4.3 mph 6.2 mph 78% 0 in
22:54 59.5 °F 52.5 °F 29.9 in SSO 4.3 mph 6.9 mph 77.3% 0 in
22:59 59.5 °F 52.3 °F 29.9 in SSO 4.2 mph 8.1 mph 77% 0 in
23:04 59.7 °F 52.3 °F 29.9 in SSO 4 mph 10 mph 76.8% 0 in
23:09 59.7 °F 52.2 °F 29.9 in SO 4.5 mph 10.4 mph 76% 0 in
23:14 59.7 °F 52.2 °F 29.8 in SSO 5.4 mph 6.9 mph 76% 0 in
23:19 59.7 °F 52.2 °F 29.8 in SSO 5 mph 7.6 mph 76% 0 in
23:24 59.9 °F 52.3 °F 29.8 in SSO 4.3 mph 8.1 mph 76% 0 in
23:29 59.9 °F 52.3 °F 29.8 in SSO 4.7 mph 8.5 mph 76% 0 in
23:34 60.1 °F 52.2 °F 29.8 in SSO 5.4 mph 8.1 mph 75.4% 0 in
23:39 60.1 °F 52.2 °F 29.8 in SSO 5.2 mph 6.9 mph 75% 0 in
23:44 60.1 °F 52.2 °F 29.8 in SSO 4.7 mph 6.9 mph 75% 0 in
23:49 60.1 °F 52.2 °F 29.8 in Sur 4.6 mph 5.8 mph 75.4% 0 in
23:54 59.9 °F 52.2 °F 29.8 in SSO 4.3 mph 6.2 mph 76% 0 in
23:59 59.7 °F 52.2 °F 29.8 in SSO 4.2 mph 5.8 mph 76% 0 in
Murcia-Puente Tocinos, Espa?a
Compliments of Weather Underground - 3 mb

La estación de MeteoMurcia.com, publica sus datos en los siguientes proyectos:

Weather Underground PWS IMURCIAP2 Meteoclimatic www.awekas.at

W3Counter
Web Analytics